createdAt,value
2018-12-02T00:01:49.105Z,10.10
2018-12-02T00:04:54.521Z,9.30
2018-12-02T00:08:16.676Z,9.50
2018-12-02T00:11:20.025Z,9.60
2018-12-02T00:14:23.456Z,10.00
2018-12-02T00:17:26.876Z,9.90
2018-12-02T00:20:30.345Z,9.40
2018-12-02T00:23:33.683Z,9.40
2018-12-02T00:26:36.998Z,9.40
2018-12-02T00:29:40.318Z,9.50
2018-12-02T00:32:43.793Z,9.40
2018-12-02T00:35:47.049Z,9.50
2018-12-02T00:38:50.363Z,9.80
2018-12-02T00:41:53.631Z,9.40
2018-12-02T00:44:56.901Z,10.00
2018-12-02T00:48:00.587Z,9.80
2018-12-02T00:51:04.062Z,9.70
2018-12-02T00:54:07.356Z,9.40
2018-12-02T00:57:10.633Z,9.40
2018-12-02T01:00:15.251Z,9.90
2018-12-02T01:03:18.672Z,9.60
2018-12-02T01:06:21.960Z,10.20
2018-12-02T01:09:25.260Z,10.00
2018-12-02T01:12:28.552Z,9.80
2018-12-02T01:15:32.344Z,9.70
2018-12-02T01:18:35.645Z,9.90
2018-12-02T01:21:39.016Z,9.50
2018-12-02T01:24:42.302Z,9.70
2018-12-02T01:27:47.038Z,10.10
2018-12-02T01:30:50.401Z,9.60
2018-12-02T01:33:53.718Z,9.90
2018-12-02T01:36:57.032Z,9.90
2018-12-02T01:40:00.304Z,9.40
2018-12-02T01:43:03.800Z,9.50
2018-12-02T01:46:07.113Z,9.40
2018-12-02T01:49:10.384Z,9.90
2018-12-02T01:52:13.764Z,10.20
2018-12-02T01:55:17.086Z,10.10
2018-12-02T01:58:20.377Z,10.00
2018-12-02T02:01:23.673Z,9.50
2018-12-02T02:04:26.924Z,9.70
2018-12-02T02:07:30.208Z,10.20
2018-12-02T02:10:33.537Z,9.90
2018-12-02T02:13:36.833Z,9.70
2018-12-02T02:16:40.150Z,9.70
2018-12-02T02:19:43.441Z,9.80
2018-12-02T02:22:47.012Z,10.10
2018-12-02T02:25:50.290Z,9.90
2018-12-02T02:28:53.568Z,10.20
2018-12-02T02:31:56.884Z,9.80
2018-12-02T02:35:00.140Z,9.90
2018-12-02T02:38:03.454Z,10.30
2018-12-02T02:41:06.745Z,10.20
2018-12-02T02:44:10.031Z,9.80
2018-12-02T02:47:13.321Z,9.60
2018-12-02T02:50:19.666Z,9.60
2018-12-02T02:53:23.001Z,10.30
2018-12-02T02:56:26.320Z,9.90
2018-12-02T02:59:29.629Z,9.70
2018-12-02T03:02:32.913Z,10.30
2018-12-02T03:05:36.213Z,9.90
2018-12-02T03:08:39.538Z,9.70
2018-12-02T03:11:42.820Z,9.90
2018-12-02T03:14:46.122Z,9.90
2018-12-02T03:17:49.527Z,10.10
2018-12-02T03:20:52.815Z,9.70
2018-12-02T03:23:56.119Z,9.80
2018-12-02T03:26:59.433Z,9.80
2018-12-02T03:30:04.217Z,10.50
2018-12-02T03:33:07.539Z,10.30
2018-12-02T03:36:10.821Z,10.60
2018-12-02T03:39:14.112Z,10.40
2018-12-02T03:42:17.405Z,9.90
2018-12-02T03:45:24.109Z,9.70
2018-12-02T03:48:27.443Z,9.60
2018-12-02T03:51:30.749Z,10.10
2018-12-02T03:54:34.157Z,9.70
2018-12-02T03:57:37.478Z,9.70
2018-12-02T04:00:40.765Z,9.90
2018-12-02T04:03:44.048Z,9.60
2018-12-02T04:06:47.307Z,9.80
2018-12-02T04:09:50.631Z,9.40
2018-12-02T04:12:53.973Z,9.60
2018-12-02T04:15:57.240Z,9.40
2018-12-02T04:19:00.560Z,9.90
2018-12-02T04:22:03.881Z,9.60
2018-12-02T04:25:16.528Z,9.70
2018-12-02T04:28:19.810Z,9.40
2018-12-02T04:31:23.145Z,9.50
2018-12-02T04:34:27.885Z,9.70
2018-12-02T04:37:31.154Z,9.70
2018-12-02T04:40:34.942Z,9.70
2018-12-02T04:43:38.253Z,9.60
2018-12-02T04:46:41.539Z,9.20
2018-12-02T04:49:44.907Z,9.40
2018-12-02T04:52:48.259Z,9.50
2018-12-02T04:55:51.633Z,9.30
2018-12-02T04:58:54.981Z,9.20
2018-12-02T05:01:58.292Z,9.80
2018-12-02T05:05:01.635Z,9.90
2018-12-02T05:08:05.827Z,10.10
2018-12-02T05:11:09.110Z,9.70
2018-12-02T05:14:12.470Z,9.70
2018-12-02T05:17:15.781Z,9.90
2018-12-02T05:20:21.188Z,9.40
2018-12-02T05:23:24.440Z,9.40
2018-12-02T05:26:27.756Z,9.70
2018-12-02T05:29:31.013Z,9.70
2018-12-02T05:32:34.280Z,9.40
2018-12-02T05:35:37.552Z,9.80
2018-12-02T05:38:40.824Z,9.80
2018-12-02T05:41:49.720Z,10.00
2018-12-02T05:44:52.961Z,9.80
2018-12-02T05:47:56.241Z,9.90
2018-12-02T05:50:59.513Z,9.70
2018-12-02T05:54:02.794Z,9.70
2018-12-02T05:57:07.010Z,9.70
2018-12-02T06:00:13.480Z,9.30
2018-12-02T06:03:16.785Z,9.80
2018-12-02T06:06:20.051Z,10.10
2018-12-02T06:09:23.300Z,10.10
2018-12-02T06:12:26.564Z,9.90
2018-12-02T06:15:29.837Z,10.00
2018-12-02T06:18:33.104Z,10.00
2018-12-02T06:21:36.389Z,9.40
2018-12-02T06:24:39.683Z,10.10
2018-12-02T06:27:43.124Z,9.90
2018-12-02T06:30:46.385Z,9.90
2018-12-02T06:33:49.652Z,9.50
2018-12-02T06:36:52.907Z,9.80
2018-12-02T06:39:56.176Z,9.40
2018-12-02T06:42:59.444Z,9.60
2018-12-02T06:46:02.715Z,10.10
2018-12-02T06:49:05.972Z,9.70
2018-12-02T06:52:09.260Z,9.80
2018-12-02T06:55:57.033Z,10.00
2018-12-02T06:59:15.910Z,9.80
2018-12-02T07:04:42.251Z,10.10
2018-12-02T07:07:45.517Z,10.10
2018-12-02T07:10:48.782Z,9.50
2018-12-02T07:13:52.057Z,10.00
2018-12-02T07:16:55.324Z,10.10
2018-12-02T07:20:05.257Z,10.30
2018-12-02T07:23:12.328Z,10.20
2018-12-02T07:26:20.771Z,10.00
2018-12-02T07:29:24.103Z,10.10
2018-12-02T07:32:27.418Z,9.50
2018-12-02T07:35:47.553Z,10.20
2018-12-02T07:40:33.147Z,9.90
2018-12-02T07:43:36.436Z,10.40
2018-12-02T07:46:39.696Z,10.00
2018-12-02T07:49:42.992Z,9.90
2018-12-02T07:52:46.264Z,10.30
2018-12-02T07:55:49.549Z,9.50
2018-12-02T07:58:52.829Z,10.50
2018-12-02T08:01:56.108Z,10.30
2018-12-02T08:04:59.380Z,10.30
2018-12-02T08:08:02.703Z,10.10
2018-12-02T08:11:06.580Z,10.10
2018-12-02T08:14:09.881Z,10.10
2018-12-02T08:17:13.176Z,10.00
2018-12-02T08:20:17.636Z,9.90
2018-12-02T08:23:20.909Z,10.20
2018-12-02T08:26:24.198Z,9.80
2018-12-02T08:29:27.528Z,10.40
2018-12-02T08:32:30.848Z,10.10
2018-12-02T08:35:34.130Z,10.20
2018-12-02T08:38:37.402Z,10.10
2018-12-02T08:41:40.681Z,10.50
2018-12-02T08:44:43.960Z,10.00
2018-12-02T08:47:47.252Z,10.60
2018-12-02T08:50:50.623Z,10.30
2018-12-02T08:53:53.922Z,10.30
2018-12-02T08:56:57.237Z,10.40
2018-12-02T09:00:00.526Z,10.10
2018-12-02T09:03:07.124Z,10.30
2018-12-02T09:06:10.409Z,10.30
2018-12-02T09:09:13.701Z,10.60
2018-12-02T09:12:16.997Z,10.50
2018-12-02T09:15:20.321Z,10.30
2018-12-02T09:18:23.585Z,10.40
2018-12-02T09:21:26.869Z,10.50
2018-12-02T09:24:30.160Z,10.10
2018-12-02T09:27:33.533Z,10.70
2018-12-02T09:30:37.726Z,10.50
2018-12-02T09:33:41.020Z,10.80
2018-12-02T09:36:44.313Z,10.70
2018-12-02T09:39:47.557Z,10.90
2018-12-02T09:42:54.195Z,11.20
2018-12-02T09:45:57.492Z,10.80
2018-12-02T09:49:00.753Z,11.10
2018-12-02T09:52:04.635Z,10.50
2018-12-02T09:55:42.806Z,10.50
2018-12-02T09:58:46.184Z,10.90
2018-12-02T10:01:49.470Z,10.80
2018-12-02T10:04:52.768Z,10.70
2018-12-02T10:07:56.069Z,10.40
2018-12-02T10:10:59.322Z,10.90
2018-12-02T10:14:02.638Z,10.90
2018-12-02T10:17:05.968Z,10.40
2018-12-02T10:20:15.015Z,10.40
2018-12-02T10:23:18.328Z,10.40
2018-12-02T10:26:21.611Z,10.70
2018-12-02T10:29:24.879Z,11.00
2018-12-02T10:32:28.228Z,11.10
2018-12-02T10:35:31.732Z,11.10
2018-12-02T10:38:35.026Z,10.80
2018-12-02T10:41:38.337Z,11.00
2018-12-02T10:44:41.617Z,11.10
2018-12-02T10:47:44.969Z,11.20
2018-12-02T10:50:48.266Z,11.10
2018-12-02T10:53:51.565Z,11.30
2018-12-02T10:56:54.869Z,11.10
2018-12-02T10:59:58.177Z,11.40
2018-12-02T11:03:01.468Z,11.40
2018-12-02T11:06:04.881Z,11.40
2018-12-02T11:09:11.341Z,11.30
2018-12-02T11:12:14.617Z,11.40
2018-12-02T11:15:18.004Z,11.20
2018-12-02T11:18:21.343Z,11.30
2018-12-02T11:21:24.614Z,11.00
2018-12-02T11:24:27.935Z,11.40
2018-12-02T11:27:31.224Z,11.50
2018-12-02T11:30:34.524Z,11.20
2018-12-02T11:33:37.828Z,11.60
2018-12-02T11:36:41.149Z,11.30
2018-12-02T11:39:44.449Z,11.60
2018-12-02T11:42:48.860Z,11.10
2018-12-02T11:45:52.149Z,11.20
2018-12-02T11:48:55.452Z,11.60
2018-12-02T11:51:58.737Z,11.20
2018-12-02T11:55:02.049Z,11.30
2018-12-02T11:58:06.048Z,11.50
2018-12-02T12:01:09.325Z,11.70
2018-12-02T12:04:12.633Z,11.80
2018-12-02T12:07:15.932Z,11.30
2018-12-02T12:10:20.797Z,11.50
2018-12-02T12:13:24.057Z,11.80
2018-12-02T12:16:27.365Z,12.00
2018-12-02T12:19:30.656Z,12.00
2018-12-02T12:22:33.948Z,11.60
2018-12-02T12:25:37.244Z,11.50
2018-12-02T12:28:40.520Z,11.70
2018-12-02T12:31:43.796Z,11.90
2018-12-02T12:34:47.062Z,12.20
2018-12-02T12:37:50.384Z,12.50
2018-12-02T12:40:53.698Z,11.90
2018-12-02T12:43:56.967Z,12.40
2018-12-02T12:47:00.325Z,12.20
2018-12-02T12:50:05.093Z,12.40
2018-12-02T12:53:08.420Z,12.50
2018-12-02T12:56:11.726Z,12.30
2018-12-02T12:59:15.060Z,12.20
2018-12-02T13:02:18.435Z,12.60
2018-12-02T13:05:23.593Z,12.30
2018-12-02T13:08:26.948Z,12.60
2018-12-02T13:11:30.281Z,12.30
2018-12-02T13:14:33.600Z,12.50
2018-12-02T13:17:36.921Z,12.60
2018-12-02T13:20:48.577Z,12.20
2018-12-02T13:23:52.068Z,12.60
2018-12-02T13:26:55.376Z,12.30
2018-12-02T13:29:58.685Z,12.50
2018-12-02T13:33:02.013Z,12.20
2018-12-02T13:36:05.433Z,12.50
2018-12-02T13:39:10.153Z,12.70
2018-12-02T13:42:13.457Z,12.70
2018-12-02T13:45:19.694Z,12.80
2018-12-02T13:48:23.093Z,12.90
2018-12-02T13:51:26.389Z,12.70
2018-12-02T13:54:36.969Z,12.70
2018-12-02T13:57:40.300Z,12.70
2018-12-02T14:00:43.836Z,12.80
2018-12-02T14:03:47.639Z,12.90
2018-12-02T14:06:50.946Z,12.80
2018-12-02T14:09:55.081Z,12.40
2018-12-02T14:13:02.262Z,12.90
2018-12-02T14:16:24.581Z,12.90
2018-12-02T14:19:27.894Z,12.80
2018-12-02T14:22:31.311Z,12.60
2018-12-02T14:25:34.637Z,12.80
2018-12-02T14:29:21.428Z,12.50
2018-12-02T14:32:25.997Z,12.90
2018-12-02T14:35:29.490Z,12.70
2018-12-02T14:38:32.820Z,12.80
2018-12-02T14:41:36.223Z,13.00
2018-12-02T14:44:39.581Z,12.80
2018-12-02T14:47:43.160Z,12.90
2018-12-02T14:50:46.548Z,12.80
2018-12-02T14:53:49.885Z,12.40
2018-12-02T14:56:53.252Z,12.50
2018-12-02T14:59:56.657Z,12.40
2018-12-02T15:02:59.997Z,12.40
2018-12-02T15:06:03.431Z,12.40
2018-12-02T15:09:09.854Z,13.10
2018-12-02T15:12:13.228Z,12.50
2018-12-02T15:15:17.760Z,12.30
2018-12-02T15:18:21.113Z,12.40
2018-12-02T15:21:24.445Z,12.70
2018-12-02T15:24:27.786Z,12.70
2018-12-02T15:27:31.114Z,12.40
2018-12-02T15:30:34.460Z,12.40
2018-12-02T15:33:37.915Z,12.40
2018-12-02T15:36:41.249Z,12.60
2018-12-02T15:39:44.559Z,12.20
2018-12-02T15:42:51.152Z,12.20
2018-12-02T15:45:54.487Z,12.70
2018-12-02T15:48:57.849Z,12.40
2018-12-02T15:52:01.248Z,13.10
2018-12-02T15:55:07.043Z,12.50
2018-12-02T15:58:13.117Z,12.70
2018-12-02T16:01:16.647Z,12.20
2018-12-02T16:04:19.974Z,12.20
2018-12-02T16:07:23.314Z,12.90
2018-12-02T16:10:26.605Z,12.70
2018-12-02T16:13:30.106Z,12.70
2018-12-02T16:16:33.429Z,12.40
2018-12-02T16:19:36.754Z,12.50
2018-12-02T16:22:40.173Z,12.60
2018-12-02T16:25:43.475Z,12.90
2018-12-02T16:28:46.864Z,12.40
2018-12-02T16:31:50.212Z,12.60
2018-12-02T16:34:53.523Z,12.80
2018-12-02T16:37:56.894Z,12.40
2018-12-02T16:41:00.361Z,12.60
2018-12-02T16:44:04.128Z,12.70
2018-12-02T16:47:07.521Z,12.80
2018-12-02T16:50:19.044Z,12.90
2018-12-02T16:53:25.996Z,12.80
2018-12-02T16:56:29.845Z,12.50
2018-12-02T16:59:34.100Z,12.80
2018-12-02T17:02:37.425Z,12.80
2018-12-02T17:05:40.769Z,12.90
2018-12-02T17:08:44.123Z,12.80
2018-12-02T17:11:47.465Z,12.50
2018-12-02T17:14:51.157Z,13.00
2018-12-02T17:17:54.461Z,12.60
2018-12-02T17:20:57.780Z,12.90
2018-12-02T17:24:01.154Z,12.70
2018-12-02T17:27:04.526Z,12.90
2018-12-02T17:30:43.529Z,12.90
2018-12-02T17:33:46.864Z,12.50
2018-12-02T17:36:50.160Z,13.30
2018-12-02T17:39:55.136Z,13.10
2018-12-02T17:42:58.446Z,12.90
2018-12-02T17:46:01.770Z,13.00
2018-12-02T17:49:05.301Z,12.70
2018-12-02T17:52:08.655Z,12.70
2018-12-02T17:55:12.066Z,12.70
2018-12-02T17:58:15.345Z,13.00
2018-12-02T18:01:18.688Z,13.10
2018-12-02T18:04:21.961Z,13.20
2018-12-02T18:07:25.273Z,13.20
2018-12-02T18:10:28.567Z,13.00
2018-12-02T18:13:31.858Z,13.10
2018-12-02T18:16:35.293Z,13.10
2018-12-02T18:19:38.601Z,13.40
2018-12-02T18:22:42.157Z,12.70
2018-12-02T18:25:45.481Z,12.70
2018-12-02T18:28:48.802Z,13.10
2018-12-02T18:31:52.118Z,13.10
2018-12-02T18:34:55.429Z,13.00
2018-12-02T18:38:03.400Z,13.10
2018-12-02T18:41:35.805Z,13.10
2018-12-02T18:44:39.173Z,12.80
2018-12-02T18:47:42.554Z,13.30
2018-12-02T18:50:45.889Z,13.00
2018-12-02T18:53:49.192Z,13.00
2018-12-02T18:56:52.501Z,13.00
2018-12-02T18:59:55.827Z,13.00
2018-12-02T19:03:02.184Z,13.00
2018-12-02T19:06:06.498Z,12.70
2018-12-02T19:09:12.290Z,13.10
2018-12-02T19:12:15.624Z,12.70
2018-12-02T19:15:18.993Z,13.00
2018-12-02T19:18:22.630Z,12.70
2018-12-02T19:21:28.130Z,13.00
2018-12-02T19:24:31.465Z,13.10
2018-12-02T19:27:34.775Z,12.60
2018-12-02T19:30:38.116Z,13.00
2018-12-02T19:33:41.608Z,12.50
2018-12-02T19:36:53.430Z,13.10
2018-12-02T19:39:56.750Z,12.90
2018-12-02T19:43:00.910Z,13.10
2018-12-02T19:46:04.295Z,13.10
2018-12-02T19:49:07.673Z,13.20
2018-12-02T19:52:11.003Z,13.00
2018-12-02T19:55:14.392Z,13.00
2018-12-02T19:58:17.745Z,12.80
2018-12-02T20:01:21.151Z,13.10
2018-12-02T20:04:24.477Z,13.00
2018-12-02T20:07:27.829Z,12.90
2018-12-02T20:10:31.772Z,12.90
2018-12-02T20:13:35.135Z,12.90
2018-12-02T20:16:38.517Z,12.70
2018-12-02T20:19:47.493Z,12.80
2018-12-02T20:22:51.590Z,12.90
2018-12-02T20:26:00.557Z,12.90
2018-12-02T20:29:03.883Z,12.90
2018-12-02T20:32:09.229Z,12.70
2018-12-02T20:35:12.626Z,12.90
2018-12-02T20:38:15.992Z,13.10
2018-12-02T20:41:19.481Z,12.80
2018-12-02T20:44:22.853Z,12.70
2018-12-02T20:47:26.262Z,12.90
2018-12-02T20:50:30.695Z,13.10
2018-12-02T20:53:34.126Z,12.80
2018-12-02T20:56:37.492Z,12.70
2018-12-02T20:59:40.818Z,12.40
2018-12-02T21:02:46.689Z,12.40
2018-12-02T21:06:24.036Z,12.60
2018-12-02T21:09:27.331Z,12.70
2018-12-02T21:12:31.037Z,12.70
2018-12-02T21:15:34.353Z,12.90
2018-12-02T21:18:37.721Z,12.80
2018-12-02T21:21:41.964Z,12.50
2018-12-02T21:24:45.258Z,13.10
2018-12-02T21:27:48.810Z,12.50
2018-12-02T21:30:52.255Z,12.30
2018-12-02T21:33:55.618Z,12.40
2018-12-02T21:36:58.976Z,12.30
2018-12-02T21:40:02.449Z,12.70
2018-12-02T21:43:06.052Z,12.90
2018-12-02T21:46:09.347Z,12.90
2018-12-02T21:49:12.673Z,12.40
2018-12-02T21:52:16.835Z,12.40
2018-12-02T21:55:20.238Z,12.90
2018-12-02T21:58:23.635Z,12.90
2018-12-02T22:01:26.967Z,12.80
2018-12-02T22:04:30.273Z,12.60
2018-12-02T22:07:33.586Z,13.00
2018-12-02T22:10:36.917Z,12.60
2018-12-02T22:13:43.427Z,12.80
2018-12-02T22:16:43.717Z,13.00
2018-12-02T22:19:47.073Z,12.90
2018-12-02T22:22:51.979Z,12.90
2018-12-02T22:25:55.358Z,12.60
2018-12-02T22:28:58.787Z,13.10
2018-12-02T22:32:02.193Z,13.20
2018-12-02T22:35:08.879Z,13.10
2018-12-02T22:38:12.253Z,12.50
2018-12-02T22:41:15.621Z,13.10
2018-12-02T22:44:18.942Z,12.50
2018-12-02T22:47:22.282Z,12.50
2018-12-02T22:50:27.561Z,12.60
2018-12-02T22:53:30.939Z,12.90
2018-12-02T22:56:34.337Z,12.90
2018-12-02T22:59:37.722Z,12.70
2018-12-02T23:03:15.752Z,12.80
2018-12-02T23:06:19.177Z,12.70
2018-12-02T23:09:22.517Z,12.80
2018-12-02T23:12:25.881Z,13.10
2018-12-02T23:15:29.346Z,12.60
2018-12-02T23:18:32.700Z,12.50
2018-12-02T23:21:36.109Z,12.80
2018-12-02T23:24:39.447Z,12.90
2018-12-02T23:27:43.061Z,12.50
2018-12-02T23:30:46.486Z,12.90
2018-12-02T23:33:50.053Z,12.90
2018-12-02T23:36:53.475Z,13.10
2018-12-02T23:40:05.547Z,12.70
2018-12-02T23:43:09.006Z,12.90
2018-12-02T23:46:12.445Z,12.50
2018-12-02T23:49:15.887Z,12.90
2018-12-02T23:52:19.232Z,13.10
2018-12-02T23:55:23.243Z,12.90
2018-12-02T23:58:26.653Z,12.60
